sensor_id;sensor_type;location;lat;lon;timestamp;P1;durP1;ratioP1;P2;durP2;ratioP2
39434;SDS011;66825;51.880;-0.518;2024-02-21T00:00:07;1.55;;;0.80;;
39434;SDS011;66825;51.880;-0.518;2024-02-21T00:02:34;2.38;;;1.00;;
39434;SDS011;66825;51.880;-0.518;2024-02-21T00:05:00;1.38;;;0.70;;
39434;SDS011;66825;51.880;-0.518;2024-02-21T00:07:25;1.55;;;0.80;;
39434;SDS011;66825;51.880;-0.518;2024-02-21T00:09:51;1.50;;;0.80;;
39434;SDS011;66825;51.880;-0.518;2024-02-21T00:12:16;1.67;;;0.80;;
39434;SDS011;66825;51.880;-0.518;2024-02-21T00:14:41;3.22;;;0.90;;
39434;SDS011;66825;51.880;-0.518;2024-02-21T00:17:07;2.30;;;0.80;;
39434;SDS011;66825;51.880;-0.518;2024-02-21T00:19:33;2.67;;;1.00;;
39434;SDS011;66825;51.880;-0.518;2024-02-21T00:21:59;1.48;;;0.65;;
39434;SDS011;66825;51.880;-0.518;2024-02-21T00:24:24;2.58;;;0.98;;
39434;SDS011;66825;51.880;-0.518;2024-02-21T00:26:50;1.60;;;0.82;;
39434;SDS011;66825;51.880;-0.518;2024-02-21T00:29:15;1.60;;;0.90;;
39434;SDS011;66825;51.880;-0.518;2024-02-21T00:31:41;1.48;;;0.88;;
39434;SDS011;66825;51.880;-0.518;2024-02-21T00:34:06;1.95;;;0.90;;
39434;SDS011;66825;51.880;-0.518;2024-02-21T00:36:32;1.52;;;0.80;;
39434;SDS011;66825;51.880;-0.518;2024-02-21T00:38:57;1.67;;;0.82;;
39434;SDS011;66825;51.880;-0.518;2024-02-21T00:41:23;2.85;;;0.95;;
39434;SDS011;66825;51.880;-0.518;2024-02-21T00:43:48;1.95;;;0.82;;
39434;SDS011;66825;51.880;-0.518;2024-02-21T00:46:15;2.05;;;0.90;;
39434;SDS011;66825;51.880;-0.518;2024-02-21T00:48:40;1.50;;;0.73;;
39434;SDS011;66825;51.880;-0.518;2024-02-21T00:51:06;1.42;;;0.80;;
39434;SDS011;66825;51.880;-0.518;2024-02-21T00:53:31;1.65;;;0.75;;
39434;SDS011;66825;51.880;-0.518;2024-02-21T00:55:57;1.73;;;1.00;;
39434;SDS011;66825;51.880;-0.518;2024-02-21T00:58:22;1.80;;;0.90;;
39434;SDS011;66825;51.880;-0.518;2024-02-21T01:00:48;2.00;;;0.90;;
39434;SDS011;66825;51.880;-0.518;2024-02-21T01:03:14;3.10;;;1.23;;
39434;SDS011;66825;51.880;-0.518;2024-02-21T01:05:39;1.88;;;0.93;;
39434;SDS011;66825;51.880;-0.518;2024-02-21T01:08:05;1.70;;;0.73;;
39434;SDS011;66825;51.880;-0.518;2024-02-21T01:10:30;2.03;;;0.90;;
39434;SDS011;66825;51.880;-0.518;2024-02-21T01:12:56;2.30;;;1.00;;
39434;SDS011;66825;51.880;-0.518;2024-02-21T01:15:21;2.10;;;0.85;;
39434;SDS011;66825;51.880;-0.518;2024-02-21T01:17:47;2.42;;;0.90;;
39434;SDS011;66825;51.880;-0.518;2024-02-21T01:20:13;3.17;;;0.93;;
39434;SDS011;66825;51.880;-0.518;2024-02-21T01:22:38;2.25;;;0.90;;
39434;SDS011;66825;51.880;-0.518;2024-02-21T01:25:04;1.40;;;0.82;;
39434;SDS011;66825;51.880;-0.518;2024-02-21T01:27:29;2.25;;;0.73;;
39434;SDS011;66825;51.880;-0.518;2024-02-21T01:29:55;1.95;;;0.82;;
39434;SDS011;66825;51.880;-0.518;2024-02-21T01:32:21;1.98;;;0.80;;
39434;SDS011;66825;51.880;-0.518;2024-02-21T01:34:49;1.85;;;0.82;;
39434;SDS011;66825;51.880;-0.518;2024-02-21T01:37:15;1.63;;;0.85;;
39434;SDS011;66825;51.880;-0.518;2024-02-21T01:39:40;2.13;;;0.80;;
39434;SDS011;66825;51.880;-0.518;2024-02-21T01:42:05;2.45;;;0.88;;
39434;SDS011;66825;51.880;-0.518;2024-02-21T01:44:31;2.08;;;0.90;;
39434;SDS011;66825;51.880;-0.518;2024-02-21T01:46:57;2.03;;;0.85;;
39434;SDS011;66825;51.880;-0.518;2024-02-21T01:49:22;3.13;;;0.90;;
39434;SDS011;66825;51.880;-0.518;2024-02-21T01:51:48;1.92;;;0.93;;
39434;SDS011;66825;51.880;-0.518;2024-02-21T01:54:14;1.92;;;0.75;;
39434;SDS011;66825;51.880;-0.518;2024-02-21T01:56:42;1.38;;;0.80;;
39434;SDS011;66825;51.880;-0.518;2024-02-21T01:59:08;1.20;;;0.68;;
39434;SDS011;66825;51.880;-0.518;2024-02-21T02:01:34;2.15;;;1.00;;
39434;SDS011;66825;51.880;-0.518;2024-02-21T02:04:00;2.25;;;0.90;;
39434;SDS011;66825;51.880;-0.518;2024-02-21T02:06:25;1.70;;;0.85;;
39434;SDS011;66825;51.880;-0.518;2024-02-21T02:08:51;2.10;;;1.00;;
39434;SDS011;66825;51.880;-0.518;2024-02-21T02:11:18;1.80;;;0.90;;
39434;SDS011;66825;51.880;-0.518;2024-02-21T02:13:44;2.13;;;0.77;;
39434;SDS011;66825;51.880;-0.518;2024-02-21T02:16:09;1.40;;;0.70;;
39434;SDS011;66825;51.880;-0.518;2024-02-21T02:18:35;1.88;;;0.80;;
39434;SDS011;66825;51.880;-0.518;2024-02-21T02:21:00;1.85;;;0.80;;
39434;SDS011;66825;51.880;-0.518;2024-02-21T02:23:32;1.88;;;0.90;;
39434;SDS011;66825;51.880;-0.518;2024-02-21T02:25:58;1.52;;;0.68;;
39434;SDS011;66825;51.880;-0.518;2024-02-21T02:28:26;1.75;;;0.90;;
39434;SDS011;66825;51.880;-0.518;2024-02-21T02:30:52;1.95;;;1.08;;
39434;SDS011;66825;51.880;-0.518;2024-02-21T02:33:17;2.50;;;0.93;;
39434;SDS011;66825;51.880;-0.518;2024-02-21T02:35:43;2.50;;;0.90;;
39434;SDS011;66825;51.880;-0.518;2024-02-21T02:38:09;2.00;;;0.80;;
39434;SDS011;66825;51.880;-0.518;2024-02-21T02:40:37;2.17;;;1.00;;
39434;SDS011;66825;51.880;-0.518;2024-02-21T02:43:03;3.25;;;1.00;;
39434;SDS011;66825;51.880;-0.518;2024-02-21T02:45:29;1.88;;;0.90;;
39434;SDS011;66825;51.880;-0.518;2024-02-21T02:47:55;2.00;;;0.70;;
39434;SDS011;66825;51.880;-0.518;2024-02-21T02:50:22;1.50;;;0.70;;
39434;SDS011;66825;51.880;-0.518;2024-02-21T02:52:48;1.67;;;0.80;;
39434;SDS011;66825;51.880;-0.518;2024-02-21T02:55:14;1.50;;;0.70;;
39434;SDS011;66825;51.880;-0.518;2024-02-21T02:57:39;2.47;;;0.90;;
39434;SDS011;66825;51.880;-0.518;2024-02-21T03:00:07;2.38;;;0.90;;
39434;SDS011;66825;51.880;-0.518;2024-02-21T03:02:33;2.35;;;0.80;;
39434;SDS011;66825;51.880;-0.518;2024-02-21T03:04:58;1.52;;;0.82;;
39434;SDS011;66825;51.880;-0.518;2024-02-21T03:07:24;1.67;;;0.85;;
39434;SDS011;66825;51.880;-0.518;2024-02-21T03:09:50;2.45;;;0.90;;
39434;SDS011;66825;51.880;-0.518;2024-02-21T03:12:16;1.52;;;0.80;;
39434;SDS011;66825;51.880;-0.518;2024-02-21T03:14:49;1.45;;;0.70;;
39434;SDS011;66825;51.880;-0.518;2024-02-21T08:48:04;1.35;;;0.60;;
39434;SDS011;66825;51.880;-0.518;2024-02-21T08:50:30;1.35;;;0.50;;
39434;SDS011;66825;51.880;-0.518;2024-02-21T08:52:56;0.95;;;0.50;;
39434;SDS011;66825;51.880;-0.518;2024-02-21T08:55:21;1.88;;;0.68;;
39434;SDS011;66825;51.880;-0.518;2024-02-21T08:57:47;2.22;;;0.60;;
39434;SDS011;66825;51.880;-0.518;2024-02-21T09:00:13;1.50;;;0.60;;
39434;SDS011;66825;51.880;-0.518;2024-02-21T09:02:40;1.25;;;0.57;;
39434;SDS011;66825;51.880;-0.518;2024-02-21T09:05:06;1.98;;;0.80;;
39434;SDS011;66825;51.880;-0.518;2024-02-21T09:07:32;1.73;;;0.80;;
39434;SDS011;66825;51.880;-0.518;2024-02-21T09:09:57;1.50;;;0.68;;
39434;SDS011;66825;51.880;-0.518;2024-02-21T09:12:22;1.88;;;0.82;;
39434;SDS011;66825;51.880;-0.518;2024-02-21T09:14:48;1.67;;;0.82;;
39434;SDS011;66825;51.880;-0.518;2024-02-21T09:17:18;2.00;;;0.88;;
39434;SDS011;66825;51.880;-0.518;2024-02-21T09:19:45;2.05;;;0.80;;
39434;SDS011;66825;51.880;-0.518;2024-02-21T09:22:12;3.78;;;0.93;;
39434;SDS011;66825;51.880;-0.518;2024-02-21T09:24:37;3.05;;;0.90;;
39434;SDS011;66825;51.880;-0.518;2024-02-21T09:27:03;3.15;;;0.85;;
39434;SDS011;66825;51.880;-0.518;2024-02-21T09:29:28;3.75;;;0.80;;
39434;SDS011;66825;51.880;-0.518;2024-02-21T09:31:54;4.38;;;1.10;;
39434;SDS011;66825;51.880;-0.518;2024-02-21T09:34:19;4.38;;;0.77;;
39434;SDS011;66825;51.880;-0.518;2024-02-21T09:36:44;3.22;;;1.15;;
39434;SDS011;66825;51.880;-0.518;2024-02-21T09:39:10;8.18;;;1.15;;
39434;SDS011;66825;51.880;-0.518;2024-02-21T09:41:45;2.70;;;0.90;;
39434;SDS011;66825;51.880;-0.518;2024-02-21T09:44:17;3.47;;;1.13;;
39434;SDS011;66825;51.880;-0.518;2024-02-21T09:46:57;5.85;;;1.40;;
39434;SDS011;66825;51.880;-0.518;2024-02-21T09:49:31;5.20;;;1.30;;
39434;SDS011;66825;51.880;-0.518;2024-02-21T09:52:00;4.55;;;1.58;;
39434;SDS011;66825;51.880;-0.518;2024-02-21T09:54:30;7.53;;;2.10;;
39434;SDS011;66825;51.880;-0.518;2024-02-21T09:56:56;5.45;;;1.60;;
39434;SDS011;66825;51.880;-0.518;2024-02-21T09:59:22;5.28;;;1.58;;
39434;SDS011;66825;51.880;-0.518;2024-02-21T10:01:49;5.18;;;1.40;;
39434;SDS011;66825;51.880;-0.518;2024-02-21T10:04:15;3.92;;;1.25;;
39434;SDS011;66825;51.880;-0.518;2024-02-21T10:06:41;4.60;;;1.50;;
39434;SDS011;66825;51.880;-0.518;2024-02-21T10:09:06;4.68;;;1.08;;
39434;SDS011;66825;51.880;-0.518;2024-02-21T10:11:32;8.48;;;1.92;;
39434;SDS011;66825;51.880;-0.518;2024-02-21T10:16:30;6.28;;;1.95;;
39434;SDS011;66825;51.880;-0.518;2024-02-21T10:18:56;3.97;;;1.48;;
39434;SDS011;66825;51.880;-0.518;2024-02-21T10:21:21;7.93;;;1.83;;
39434;SDS011;66825;51.880;-0.518;2024-02-21T10:23:48;5.25;;;1.60;;
39434;SDS011;66825;51.880;-0.518;2024-02-21T10:26:14;4.28;;;1.45;;
39434;SDS011;66825;51.880;-0.518;2024-02-21T10:28:41;6.78;;;1.60;;
39434;SDS011;66825;51.880;-0.518;2024-02-21T10:31:11;7.95;;;1.75;;
39434;SDS011;66825;51.880;-0.518;2024-02-21T10:33:53;9.38;;;2.00;;
39434;SDS011;66825;51.880;-0.518;2024-02-21T10:36:22;7.75;;;1.50;;
39434;SDS011;66825;51.880;-0.518;2024-02-21T10:38:49;10.48;;;1.50;;
39434;SDS011;66825;51.880;-0.518;2024-02-21T10:41:15;17.98;;;2.75;;
39434;SDS011;66825;51.880;-0.518;2024-02-21T10:43:43;10.60;;;2.17;;
39434;SDS011;66825;51.880;-0.518;2024-02-21T10:46:13;9.77;;;2.10;;
39434;SDS011;66825;51.880;-0.518;2024-02-21T10:48:44;10.02;;;1.98;;
39434;SDS011;66825;51.880;-0.518;2024-02-21T10:58:53;9.57;;;2.13;;
39434;SDS011;66825;51.880;-0.518;2024-02-21T11:01:21;10.18;;;2.30;;
39434;SDS011;66825;51.880;-0.518;2024-02-21T11:03:47;7.18;;;2.10;;
39434;SDS011;66825;51.880;-0.518;2024-02-21T11:06:14;7.03;;;1.85;;
39434;SDS011;66825;51.880;-0.518;2024-02-21T11:08:42;6.93;;;2.00;;
39434;SDS011;66825;51.880;-0.518;2024-02-21T11:11:08;5.05;;;2.00;;
39434;SDS011;66825;51.880;-0.518;2024-02-21T11:13:35;9.27;;;1.90;;
39434;SDS011;66825;51.880;-0.518;2024-02-21T11:18:34;6.45;;;2.00;;
39434;SDS011;66825;51.880;-0.518;2024-02-21T11:21:00;7.65;;;2.00;;
39434;SDS011;66825;51.880;-0.518;2024-02-21T11:23:26;5.65;;;1.80;;
39434;SDS011;66825;51.880;-0.518;2024-02-21T11:25:51;9.63;;;1.95;;
39434;SDS011;66825;51.880;-0.518;2024-02-21T11:28:24;10.02;;;2.28;;
39434;SDS011;66825;51.880;-0.518;2024-02-21T11:30:50;13.10;;;2.70;;
39434;SDS011;66825;51.880;-0.518;2024-02-21T11:33:16;9.75;;;2.38;;
39434;SDS011;66825;51.880;-0.518;2024-02-21T11:35:42;12.93;;;2.30;;
39434;SDS011;66825;51.880;-0.518;2024-02-21T11:38:09;9.68;;;2.30;;
39434;SDS011;66825;51.880;-0.518;2024-02-21T11:40:38;11.85;;;2.50;;
39434;SDS011;66825;51.880;-0.518;2024-02-21T11:43:05;12.00;;;2.28;;
39434;SDS011;66825;51.880;-0.518;2024-02-21T11:45:31;14.23;;;2.50;;
39434;SDS011;66825;51.880;-0.518;2024-02-21T11:47:57;9.82;;;2.17;;
39434;SDS011;66825;51.880;-0.518;2024-02-21T11:50:26;17.45;;;4.10;;
39434;SDS011;66825;51.880;-0.518;2024-02-21T11:52:54;11.50;;;2.72;;
39434;SDS011;66825;51.880;-0.518;2024-02-21T11:55:20;13.55;;;3.08;;
39434;SDS011;66825;51.880;-0.518;2024-02-21T11:57:49;14.90;;;3.33;;
39434;SDS011;66825;51.880;-0.518;2024-02-21T12:00:15;11.95;;;3.03;;
39434;SDS011;66825;51.880;-0.518;2024-02-21T12:02:42;15.88;;;3.72;;
39434;SDS011;66825;51.880;-0.518;2024-02-21T12:05:10;18.42;;;4.65;;
39434;SDS011;66825;51.880;-0.518;2024-02-21T12:07:37;15.57;;;4.35;;
39434;SDS011;66825;51.880;-0.518;2024-02-21T12:10:12;15.57;;;3.65;;
39434;SDS011;66825;51.880;-0.518;2024-02-21T12:12:38;11.55;;;3.60;;
39434;SDS011;66825;51.880;-0.518;2024-02-21T12:15:05;13.23;;;3.47;;
39434;SDS011;66825;51.880;-0.518;2024-02-21T12:17:34;15.23;;;3.65;;
39434;SDS011;66825;51.880;-0.518;2024-02-21T12:20:05;17.30;;;3.40;;
39434;SDS011;66825;51.880;-0.518;2024-02-21T12:22:52;15.68;;;3.38;;
39434;SDS011;66825;51.880;-0.518;2024-02-21T12:25:22;18.33;;;3.67;;
39434;SDS011;66825;51.880;-0.518;2024-02-21T12:27:48;12.70;;;3.22;;
39434;SDS011;66825;51.880;-0.518;2024-02-21T12:30:17;13.20;;;3.20;;
39434;SDS011;66825;51.880;-0.518;2024-02-21T12:32:43;9.27;;;3.05;;
39434;SDS011;66825;51.880;-0.518;2024-02-21T12:35:09;10.38;;;2.85;;
39434;SDS011;66825;51.880;-0.518;2024-02-21T12:37:34;12.70;;;3.00;;
39434;SDS011;66825;51.880;-0.518;2024-02-21T12:40:00;9.35;;;2.75;;
39434;SDS011;66825;51.880;-0.518;2024-02-21T12:42:26;11.27;;;2.92;;
39434;SDS011;66825;51.880;-0.518;2024-02-21T12:44:52;13.35;;;3.40;;
39434;SDS011;66825;51.880;-0.518;2024-02-21T12:47:18;14.60;;;3.25;;
39434;SDS011;66825;51.880;-0.518;2024-02-21T12:49:45;11.98;;;3.20;;
39434;SDS011;66825;51.880;-0.518;2024-02-21T12:52:11;9.20;;;3.10;;
39434;SDS011;66825;51.880;-0.518;2024-02-21T12:54:36;13.15;;;3.45;;
39434;SDS011;66825;51.880;-0.518;2024-02-21T12:57:02;15.73;;;3.65;;
39434;SDS011;66825;51.880;-0.518;2024-02-21T12:59:29;10.68;;;3.00;;
39434;SDS011;66825;51.880;-0.518;2024-02-21T13:01:55;10.65;;;2.75;;
39434;SDS011;66825;51.880;-0.518;2024-02-21T13:04:21;7.70;;;2.60;;
39434;SDS011;66825;51.880;-0.518;2024-02-21T13:06:49;10.38;;;2.80;;
39434;SDS011;66825;51.880;-0.518;2024-02-21T13:09:14;11.30;;;2.92;;
39434;SDS011;66825;51.880;-0.518;2024-02-21T13:11:40;8.85;;;2.30;;
39434;SDS011;66825;51.880;-0.518;2024-02-21T13:14:07;7.55;;;2.15;;
39434;SDS011;66825;51.880;-0.518;2024-02-21T13:16:32;8.88;;;2.20;;
39434;SDS011;66825;51.880;-0.518;2024-02-21T13:19:07;6.90;;;2.25;;
39434;SDS011;66825;51.880;-0.518;2024-02-21T13:21:33;6.57;;;2.10;;
39434;SDS011;66825;51.880;-0.518;2024-02-21T13:23:59;5.82;;;1.80;;
39434;SDS011;66825;51.880;-0.518;2024-02-21T13:26:25;6.65;;;1.92;;
39434;SDS011;66825;51.880;-0.518;2024-02-21T13:28:50;6.25;;;1.80;;
39434;SDS011;66825;51.880;-0.518;2024-02-21T13:31:16;5.60;;;1.95;;
39434;SDS011;66825;51.880;-0.518;2024-02-21T13:33:41;5.15;;;1.60;;
39434;SDS011;66825;51.880;-0.518;2024-02-21T13:36:09;6.03;;;1.73;;
39434;SDS011;66825;51.880;-0.518;2024-02-21T13:38:35;8.20;;;2.10;;
39434;SDS011;66825;51.880;-0.518;2024-02-21T13:41:01;4.57;;;1.88;;
39434;SDS011;66825;51.880;-0.518;2024-02-21T13:43:26;7.32;;;2.00;;
39434;SDS011;66825;51.880;-0.518;2024-02-21T13:45:59;63.97;;;25.58;;
39434;SDS011;66825;51.880;-0.518;2024-02-21T13:48:27;18.63;;;5.35;;
39434;SDS011;66825;51.880;-0.518;2024-02-21T13:50:54;10.75;;;2.42;;
39434;SDS011;66825;51.880;-0.518;2024-02-21T13:53:20;8.80;;;2.30;;
39434;SDS011;66825;51.880;-0.518;2024-02-21T13:55:46;12.10;;;3.15;;
39434;SDS011;66825;51.880;-0.518;2024-02-21T13:58:12;9.38;;;2.80;;
39434;SDS011;66825;51.880;-0.518;2024-02-21T14:00:37;9.65;;;2.90;;
39434;SDS011;66825;51.880;-0.518;2024-02-21T14:03:03;7.30;;;2.30;;
39434;SDS011;66825;51.880;-0.518;2024-02-21T14:05:29;12.82;;;3.40;;
39434;SDS011;66825;51.880;-0.518;2024-02-21T14:07:55;12.80;;;3.25;;
39434;SDS011;66825;51.880;-0.518;2024-02-21T14:10:20;11.43;;;2.92;;
39434;SDS011;66825;51.880;-0.518;2024-02-21T14:12:46;7.28;;;2.30;;
39434;SDS011;66825;51.880;-0.518;2024-02-21T14:15:13;12.35;;;3.40;;
39434;SDS011;66825;51.880;-0.518;2024-02-21T14:17:41;15.90;;;3.03;;
39434;SDS011;66825;51.880;-0.518;2024-02-21T14:20:08;9.57;;;2.50;;
39434;SDS011;66825;51.880;-0.518;2024-02-21T14:22:34;10.27;;;3.13;;
39434;SDS011;66825;51.880;-0.518;2024-02-21T14:25:00;15.25;;;4.10;;
39434;SDS011;66825;51.880;-0.518;2024-02-21T14:27:26;11.93;;;3.58;;
39434;SDS011;66825;51.880;-0.518;2024-02-21T14:29:51;16.25;;;3.53;;
39434;SDS011;66825;51.880;-0.518;2024-02-21T14:32:17;25.02;;;5.03;;
39434;SDS011;66825;51.880;-0.518;2024-02-21T14:34:42;34.35;;;6.00;;
39434;SDS011;66825;51.880;-0.518;2024-02-21T14:37:08;16.70;;;4.45;;
39434;SDS011;66825;51.880;-0.518;2024-02-21T14:39:33;22.63;;;4.85;;
39434;SDS011;66825;51.880;-0.518;2024-02-21T14:42:00;19.13;;;4.53;;
39434;SDS011;66825;51.880;-0.518;2024-02-21T14:44:26;20.52;;;4.80;;
39434;SDS011;66825;51.880;-0.518;2024-02-21T14:46:52;14.88;;;3.85;;
39434;SDS011;66825;51.880;-0.518;2024-02-21T14:49:18;20.63;;;4.53;;
39434;SDS011;66825;51.880;-0.518;2024-02-21T14:51:44;20.55;;;4.50;;
39434;SDS011;66825;51.880;-0.518;2024-02-21T14:54:10;13.68;;;3.90;;
39434;SDS011;66825;51.880;-0.518;2024-02-21T15:11:20;11.82;;;2.83;;
39434;SDS011;66825;51.880;-0.518;2024-02-21T15:13:47;13.70;;;3.20;;
39434;SDS011;66825;51.880;-0.518;2024-02-21T15:16:13;8.80;;;2.50;;
39434;SDS011;66825;51.880;-0.518;2024-02-21T15:18:38;8.57;;;2.83;;
39434;SDS011;66825;51.880;-0.518;2024-02-21T15:21:04;10.52;;;2.65;;
39434;SDS011;66825;51.880;-0.518;2024-02-21T15:23:29;11.85;;;2.78;;
39434;SDS011;66825;51.880;-0.518;2024-02-21T15:25:55;9.55;;;2.35;;
39434;SDS011;66825;51.880;-0.518;2024-02-21T15:28:20;10.70;;;2.72;;
39434;SDS011;66825;51.880;-0.518;2024-02-21T15:30:46;10.50;;;2.58;;
39434;SDS011;66825;51.880;-0.518;2024-02-21T15:33:11;16.13;;;4.28;;
39434;SDS011;66825;51.880;-0.518;2024-02-21T15:35:37;11.05;;;3.17;;
39434;SDS011;66825;51.880;-0.518;2024-02-21T15:38:02;10.05;;;2.90;;
39434;SDS011;66825;51.880;-0.518;2024-02-21T15:40:28;16.92;;;3.95;;
39434;SDS011;66825;51.880;-0.518;2024-02-21T15:42:54;11.35;;;2.85;;
39434;SDS011;66825;51.880;-0.518;2024-02-21T15:45:20;16.23;;;3.47;;
39434;SDS011;66825;51.880;-0.518;2024-02-21T15:47:46;10.13;;;2.70;;
39434;SDS011;66825;51.880;-0.518;2024-02-21T15:50:12;11.50;;;2.55;;
39434;SDS011;66825;51.880;-0.518;2024-02-21T15:52:37;8.02;;;2.42;;
39434;SDS011;66825;51.880;-0.518;2024-02-21T15:55:03;8.30;;;2.70;;
39434;SDS011;66825;51.880;-0.518;2024-02-21T15:57:30;15.68;;;3.25;;
39434;SDS011;66825;51.880;-0.518;2024-02-21T15:59:57;10.85;;;3.03;;
39434;SDS011;66825;51.880;-0.518;2024-02-21T16:02:22;8.73;;;2.45;;
39434;SDS011;66825;51.880;-0.518;2024-02-21T16:04:49;9.38;;;2.42;;
39434;SDS011;66825;51.880;-0.518;2024-02-21T16:07:15;17.48;;;4.07;;
39434;SDS011;66825;51.880;-0.518;2024-02-21T16:09:40;9.18;;;2.30;;
39434;SDS011;66825;51.880;-0.518;2024-02-21T16:12:09;15.05;;;3.47;;
39434;SDS011;66825;51.880;-0.518;2024-02-21T16:14:35;13.00;;;3.67;;
39434;SDS011;66825;51.880;-0.518;2024-02-21T16:17:03;10.43;;;2.25;;
39434;SDS011;66825;51.880;-0.518;2024-02-21T16:19:31;14.82;;;3.50;;
39434;SDS011;66825;51.880;-0.518;2024-02-21T16:21:57;11.98;;;3.20;;
39434;SDS011;66825;51.880;-0.518;2024-02-21T16:24:23;12.18;;;3.10;;
39434;SDS011;66825;51.880;-0.518;2024-02-21T16:26:49;10.93;;;2.78;;
39434;SDS011;66825;51.880;-0.518;2024-02-21T16:29:14;15.20;;;3.28;;
39434;SDS011;66825;51.880;-0.518;2024-02-21T16:31:40;10.60;;;2.80;;
39434;SDS011;66825;51.880;-0.518;2024-02-21T16:34:05;8.75;;;2.58;;
39434;SDS011;66825;51.880;-0.518;2024-02-21T16:36:32;12.27;;;2.55;;
39434;SDS011;66825;51.880;-0.518;2024-02-21T16:38:58;9.25;;;2.80;;
39434;SDS011;66825;51.880;-0.518;2024-02-21T16:41:25;7.88;;;2.40;;
39434;SDS011;66825;51.880;-0.518;2024-02-21T16:43:52;7.68;;;2.40;;
39434;SDS011;66825;51.880;-0.518;2024-02-21T16:46:18;10.82;;;2.80;;
39434;SDS011;66825;51.880;-0.518;2024-02-21T16:48:45;12.80;;;4.65;;
39434;SDS011;66825;51.880;-0.518;2024-02-21T16:51:11;10.80;;;3.08;;
39434;SDS011;66825;51.880;-0.518;2024-02-21T16:53:36;7.53;;;2.60;;
39434;SDS011;66825;51.880;-0.518;2024-02-21T16:56:03;11.80;;;3.08;;
39434;SDS011;66825;51.880;-0.518;2024-02-21T16:58:29;7.82;;;2.20;;
39434;SDS011;66825;51.880;-0.518;2024-02-21T17:01:05;12.20;;;2.55;;
39434;SDS011;66825;51.880;-0.518;2024-02-21T17:03:32;9.80;;;2.60;;
39434;SDS011;66825;51.880;-0.518;2024-02-21T17:05:58;7.78;;;2.55;;
39434;SDS011;66825;51.880;-0.518;2024-02-21T17:08:23;6.80;;;2.60;;
39434;SDS011;66825;51.880;-0.518;2024-02-21T17:10:50;7.32;;;2.08;;
39434;SDS011;66825;51.880;-0.518;2024-02-21T17:13:15;7.05;;;1.95;;
39434;SDS011;66825;51.880;-0.518;2024-02-21T17:15:41;6.15;;;2.10;;
39434;SDS011;66825;51.880;-0.518;2024-02-21T17:18:07;5.20;;;1.92;;
39434;SDS011;66825;51.880;-0.518;2024-02-21T17:20:32;4.38;;;1.60;;
39434;SDS011;66825;51.880;-0.518;2024-02-21T17:22:58;4.60;;;1.52;;
39434;SDS011;66825;51.880;-0.518;2024-02-21T17:25:23;5.35;;;1.70;;
39434;SDS011;66825;51.880;-0.518;2024-02-21T17:27:48;3.25;;;1.45;;
39434;SDS011;66825;51.880;-0.518;2024-02-21T17:30:15;5.97;;;1.73;;
39434;SDS011;66825;51.880;-0.518;2024-02-21T17:32:40;3.67;;;1.60;;
39434;SDS011;66825;51.880;-0.518;2024-02-21T17:35:06;4.40;;;1.58;;
39434;SDS011;66825;51.880;-0.518;2024-02-21T17:37:32;6.13;;;1.70;;
39434;SDS011;66825;51.880;-0.518;2024-02-21T17:40:01;4.35;;;1.70;;
39434;SDS011;66825;51.880;-0.518;2024-02-21T17:42:33;4.75;;;1.40;;
39434;SDS011;66825;51.880;-0.518;2024-02-21T17:45:02;4.30;;;1.52;;
39434;SDS011;66825;51.880;-0.518;2024-02-21T17:47:28;3.95;;;1.50;;
39434;SDS011;66825;51.880;-0.518;2024-02-21T17:49:54;4.93;;;1.40;;
39434;SDS011;66825;51.880;-0.518;2024-02-21T17:52:19;3.22;;;1.38;;
39434;SDS011;66825;51.880;-0.518;2024-02-21T17:54:45;3.97;;;1.13;;
39434;SDS011;66825;51.880;-0.518;2024-02-21T17:57:12;3.13;;;1.30;;
39434;SDS011;66825;51.880;-0.518;2024-02-21T17:59:41;4.15;;;1.25;;
39434;SDS011;66825;51.880;-0.518;2024-02-21T18:02:08;2.63;;;1.30;;
39434;SDS011;66825;51.880;-0.518;2024-02-21T18:04:34;2.92;;;1.23;;
39434;SDS011;66825;51.880;-0.518;2024-02-21T18:07:00;3.70;;;1.38;;
39434;SDS011;66825;51.880;-0.518;2024-02-21T18:09:26;3.70;;;1.30;;
39434;SDS011;66825;51.880;-0.518;2024-02-21T18:11:51;2.45;;;1.15;;
39434;SDS011;66825;51.880;-0.518;2024-02-21T18:14:17;3.42;;;1.30;;
39434;SDS011;66825;51.880;-0.518;2024-02-21T18:16:42;2.22;;;0.90;;
39434;SDS011;66825;51.880;-0.518;2024-02-21T18:19:08;3.50;;;1.20;;
39434;SDS011;66825;51.880;-0.518;2024-02-21T18:21:33;2.45;;;1.10;;
39434;SDS011;66825;51.880;-0.518;2024-02-21T18:23:59;3.75;;;1.05;;
39434;SDS011;66825;51.880;-0.518;2024-02-21T18:26:25;2.00;;;1.10;;
39434;SDS011;66825;51.880;-0.518;2024-02-21T18:28:50;2.72;;;0.90;;
39434;SDS011;66825;51.880;-0.518;2024-02-21T18:31:17;3.60;;;1.23;;
39434;SDS011;66825;51.880;-0.518;2024-02-21T18:33:43;3.05;;;1.10;;
39434;SDS011;66825;51.880;-0.518;2024-02-21T18:36:10;2.88;;;1.23;;
39434;SDS011;66825;51.880;-0.518;2024-02-21T18:38:36;2.25;;;1.00;;
39434;SDS011;66825;51.880;-0.518;2024-02-21T18:41:02;4.07;;;1.52;;
39434;SDS011;66825;51.880;-0.518;2024-02-21T18:43:27;2.80;;;1.23;;
39434;SDS011;66825;51.880;-0.518;2024-02-21T18:45:53;2.83;;;1.10;;
39434;SDS011;66825;51.880;-0.518;2024-02-21T18:48:18;3.67;;;1.10;;
39434;SDS011;66825;51.880;-0.518;2024-02-21T18:50:43;2.78;;;1.00;;
39434;SDS011;66825;51.880;-0.518;2024-02-21T18:53:09;2.83;;;1.10;;
39434;SDS011;66825;51.880;-0.518;2024-02-21T18:55:34;2.92;;;1.10;;
39434;SDS011;66825;51.880;-0.518;2024-02-21T18:58:00;2.95;;;1.10;;
39434;SDS011;66825;51.880;-0.518;2024-02-21T19:00:25;2.42;;;1.10;;
39434;SDS011;66825;51.880;-0.518;2024-02-21T19:02:51;4.80;;;1.35;;
39434;SDS011;66825;51.880;-0.518;2024-02-21T19:05:16;2.33;;;0.90;;
39434;SDS011;66825;51.880;-0.518;2024-02-21T19:07:46;2.65;;;1.00;;
39434;SDS011;66825;51.880;-0.518;2024-02-21T19:10:12;1.67;;;0.90;;
39434;SDS011;66825;51.880;-0.518;2024-02-21T19:12:39;2.40;;;1.10;;
39434;SDS011;66825;51.880;-0.518;2024-02-21T19:15:05;2.47;;;1.00;;
39434;SDS011;66825;51.880;-0.518;2024-02-21T19:17:30;2.78;;;1.00;;
39434;SDS011;66825;51.880;-0.518;2024-02-21T19:19:56;2.83;;;1.00;;
39434;SDS011;66825;51.880;-0.518;2024-02-21T19:22:22;2.67;;;0.88;;
39434;SDS011;66825;51.880;-0.518;2024-02-21T19:24:50;2.67;;;1.00;;
39434;SDS011;66825;51.880;-0.518;2024-02-21T19:27:15;2.15;;;0.90;;
39434;SDS011;66825;51.880;-0.518;2024-02-21T19:29:41;2.30;;;0.98;;
39434;SDS011;66825;51.880;-0.518;2024-02-21T19:32:06;2.22;;;1.17;;
39434;SDS011;66825;51.880;-0.518;2024-02-21T19:34:32;3.90;;;1.00;;
39434;SDS011;66825;51.880;-0.518;2024-02-21T19:36:58;2.40;;;1.02;;
39434;SDS011;66825;51.880;-0.518;2024-02-21T19:39:23;3.00;;;1.02;;
39434;SDS011;66825;51.880;-0.518;2024-02-21T19:41:51;1.85;;;0.90;;
39434;SDS011;66825;51.880;-0.518;2024-02-21T19:44:17;2.92;;;1.08;;
39434;SDS011;66825;51.880;-0.518;2024-02-21T19:46:46;2.90;;;0.90;;
39434;SDS011;66825;51.880;-0.518;2024-02-21T19:49:12;2.05;;;0.82;;
39434;SDS011;66825;51.880;-0.518;2024-02-21T19:51:38;2.63;;;0.90;;
39434;SDS011;66825;51.880;-0.518;2024-02-21T19:54:04;1.83;;;0.90;;
39434;SDS011;66825;51.880;-0.518;2024-02-21T19:56:30;3.33;;;1.30;;
39434;SDS011;66825;51.880;-0.518;2024-02-21T19:58:57;2.25;;;1.02;;
39434;SDS011;66825;51.880;-0.518;2024-02-21T20:01:23;4.45;;;1.20;;
39434;SDS011;66825;51.880;-0.518;2024-02-21T20:03:48;1.92;;;1.00;;
39434;SDS011;66825;51.880;-0.518;2024-02-21T20:06:15;2.25;;;0.90;;
39434;SDS011;66825;51.880;-0.518;2024-02-21T20:08:41;2.30;;;1.08;;
39434;SDS011;66825;51.880;-0.518;2024-02-21T20:11:07;2.17;;;0.80;;
39434;SDS011;66825;51.880;-0.518;2024-02-21T20:13:33;2.35;;;1.00;;
39434;SDS011;66825;51.880;-0.518;2024-02-21T20:15:59;2.17;;;0.90;;
39434;SDS011;66825;51.880;-0.518;2024-02-21T20:18:25;2.40;;;1.10;;
39434;SDS011;66825;51.880;-0.518;2024-02-21T20:20:50;3.15;;;0.88;;
39434;SDS011;66825;51.880;-0.518;2024-02-21T20:23:16;2.72;;;1.00;;